Time;durP1;ratioP1;P1;durP2;ratioP2;P2;SDS_P1;SDS_P2;PMS_P1;PMS_P2;Temp;Humidity;BMP_temperature;BMP_pressure;BME280_temperature;BME280_humidity;BME280_pressure;Samples;Min_cycle;Max_cycle;Signal;HPM_P1;HPM_P2
2022/07/26 00:00:58;;;;;;;;;;;;;;;30.37;30.42;100826.66;4412161;32;20013;-68
2022/07/26 00:03:24;;;;;;;;;;;;;;;30.40;30.61;100830.56;4409826;32;20349;-68
2022/07/26 00:06:08;;;;;;;;;;;;;;;30.52;30.48;100832.53;4415200;32;19976;-68
2022/07/26 00:08:33;;;;;;;;;;;;;;;30.62;30.08;100838.56;4413306;32;20133;-68
2022/07/26 00:10:59;;;;;;;;;;;;;;;30.54;30.21;100843.56;4411056;32;19987;-68
2022/07/26 00:13:24;;;;;;;;;;;;;;;29.83;30.88;100838.56;4412695;32;20326;-68
2022/07/26 00:15:50;;;;;;;;;;;;;;;30.43;29.93;100844.69;4414392;32;20371;-68
2022/07/26 00:18:16;;;;;;;;;;;;;;;30.36;29.97;100842.53;4412316;32;19949;-68
2022/07/26 00:20:42;;;;;;;;;;;;;;;30.01;30.60;100852.03;4412243;32;20027;-68
2022/07/26 00:23:08;;;;;;;;;;;;;;;30.16;30.08;100860.03;4415543;32;20705;-68
2022/07/26 00:25:34;;;;;;;;;;;;;;;30.32;29.87;100865.38;4410827;32;19976;-68
2022/07/26 00:27:59;;;;;;;;;;;;;;;30.29;29.85;100869.44;4409536;32;19987;-68
2022/07/26 00:30:25;;;;;;;;;;;;;;;30.33;30.10;100869.03;4410855;32;19972;-68
2022/07/26 00:32:51;;;;;;;;;;;;;;;30.35;29.54;100872.94;4413551;32;19980;-68
2022/07/26 00:35:17;;;;;;;;;;;;;;;30.50;29.40;100878.03;4413478;32;20182;-68
2022/07/26 00:37:43;;;;;;;;;;;;;;;30.58;29.64;100884.63;4412796;32;20391;-68
2022/07/26 00:40:09;;;;;;;;;;;;;;;30.52;29.32;100881.13;4410158;32;20243;-68
2022/07/26 00:42:34;;;;;;;;;;;;;;;30.57;29.32;100891.81;4412555;32;20422;-68
2022/07/26 00:45:00;;;;;;;;;;;;;;;30.56;29.35;100887.34;4414759;32;19950;-68
2022/07/26 00:47:26;;;;;;;;;;;;;;;30.59;29.30;100892.00;4419224;32;20025;-68
2022/07/26 00:49:51;;;;;;;;;;;;;;;30.72;28.49;100892.66;4420666;32;20330;-68
2022/07/26 00:52:17;;;;;;;;;;;;;;;30.41;29.30;100888.06;4419611;32;19957;-68
2022/07/26 00:54:44;;;;;;;;;;;;;;;30.78;29.01;100901.22;4423781;32;19968;-68
2022/07/26 00:57:11;;;;;;;;;;;;;;;30.99;28.98;100898.16;4424841;32;20353;-68
2022/07/26 00:59:36;;;;;;;;;;;;;;;30.83;29.17;100896.56;4423026;32;20037;-68
2022/07/26 01:02:03;;;;;;;;;;;;;;;30.92;28.73;100901.84;4423727;32;20008;-69
2022/07/26 01:04:29;;;;;;;;;;;;;;;30.66;29.18;100897.06;4423144;32;20271;-68
2022/07/26 01:06:54;;;;;;;;;;;;;;;30.72;28.92;100903.47;4425777;32;20418;-68
2022/07/26 01:09:20;;;;;;;;;;;;;;;30.76;28.92;100892.28;4422074;32;20008;-68
2022/07/26 01:11:45;;;;;;;;;;;;;;;30.57;28.69;100892.59;4423187;32;19950;-68
2022/07/26 01:14:11;;;;;;;;;;;;;;;30.72;28.97;100886.06;4422161;32;20013;-68
2022/07/26 01:16:37;;;;;;;;;;;;;;;30.59;28.81;100886.97;4421579;32;20031;-68
2022/07/26 01:19:02;;;;;;;;;;;;;;;30.68;28.91;100891.47;4423395;32;19981;-68
2022/07/26 01:21:28;;;;;;;;;;;;;;;30.53;29.04;100877.63;4426144;32;19985;-68
2022/07/26 01:23:54;;;;;;;;;;;;;;;30.73;28.79;100881.78;4422985;32;20271;-68
2022/07/26 01:26:19;;;;;;;;;;;;;;;30.64;29.13;100877.31;4422831;32;20041;-68
2022/07/26 01:28:48;;;;;;;;;;;;;;;30.84;28.79;100884.37;4423055;32;19996;-68
2022/07/26 01:31:14;;;;;;;;;;;;;;;30.86;29.03;100890.38;4422998;32;19961;-68
2022/07/26 01:33:39;;;;;;;;;;;;;;;30.91;28.70;100892.31;4423351;32;20274;-68
2022/07/26 01:36:06;;;;;;;;;;;;;;;30.99;28.68;100898.94;4422901;32;19992;-68
2022/07/26 01:38:31;;;;;;;;;;;;;;;30.57;29.40;100900.53;4421625;32;19953;-68
2022/07/26 01:40:57;;;;;;;;;;;;;;;30.76;29.25;100898.09;4422185;32;20005;-68
2022/07/26 01:43:23;;;;;;;;;;;;;;;30.76;29.17;100892.28;4426145;32;19945;-68
2022/07/26 01:45:48;;;;;;;;;;;;;;;30.57;29.22;100888.91;4422446;32;20018;-68
2022/07/26 01:48:14;;;;;;;;;;;;;;;30.39;29.41;100889.97;4420668;32;20004;-68
2022/07/26 01:50:39;;;;;;;;;;;;;;;30.69;29.18;100896.72;4423346;32;19993;-68
2022/07/26 01:53:04;;;;;;;;;;;;;;;30.81;29.11;100897.91;4425058;32;19958;-68
2022/07/26 01:55:30;;;;;;;;;;;;;;;30.68;29.04;100900.19;4420715;32;19964;-68
2022/07/26 01:57:55;;;;;;;;;;;;;;;30.62;28.74;100902.50;4419258;32;20008;-68
2022/07/26 02:00:21;;;;;;;;;;;;;;;30.65;28.92;100898.44;4420943;32;20639;-68
2022/07/26 02:02:46;;;;;;;;;;;;;;;30.51;28.93;100902.81;4423047;32;20322;-68
2022/07/26 02:05:12;;;;;;;;;;;;;;;30.26;29.03;100899.62;4421348;32;20037;-68
2022/07/26 02:07:39;;;;;;;;;;;;;;;30.45;28.88;100903.00;4422129;32;19985;-68
2022/07/26 02:10:05;;;;;;;;;;;;;;;30.69;28.79;100907.53;4422237;32;19962;-68
2022/07/26 02:12:31;;;;;;;;;;;;;;;30.65;28.69;100901.34;4423648;32;20008;-68
2022/07/26 02:14:56;;;;;;;;;;;;;;;30.81;28.54;100903.72;4422536;32;19962;-68
2022/07/26 02:17:22;;;;;;;;;;;;;;;30.84;28.36;100902.56;4421650;32;20344;-68
2022/07/26 02:19:47;;;;;;;;;;;;;;;30.65;28.44;100905.00;4421554;32;20000;-68
2022/07/26 02:22:13;;;;;;;;;;;;;;;30.66;28.71;100902.88;4423798;32;19957;-68
2022/07/26 02:24:39;;;;;;;;;;;;;;;30.74;28.51;100900.81;4421151;32;20363;-68
2022/07/26 02:27:04;;;;;;;;;;;;;;;30.74;28.43;100898.66;4421384;32;21032;-68
2022/07/26 02:29:30;;;;;;;;;;;;;;;30.84;28.53;100904.72;4422396;32;20341;-68
2022/07/26 02:31:56;;;;;;;;;;;;;;;30.63;28.52;100909.84;4422983;32;19953;-68
2022/07/26 02:34:22;;;;;;;;;;;;;;;30.23;28.93;100912.38;4420712;32;20515;-68
2022/07/26 02:36:48;;;;;;;;;;;;;;;30.74;28.35;100900.81;4419971;32;19968;-68
2022/07/26 02:39:13;;;;;;;;;;;;;;;30.62;28.38;100905.41;4421815;32;20015;-68
2022/07/26 02:41:39;;;;;;;;;;;;;;;30.75;28.41;100902.38;4423192;32;20038;-68
2022/07/26 02:44:06;;;;;;;;;;;;;;;30.80;28.27;100902.19;4422908;32;20089;-68
2022/07/26 02:46:32;;;;;;;;;;;;;;;30.76;28.30;100909.72;4421221;32;20209;-68
2022/07/26 02:48:59;;;;;;;;;;;;;;;30.73;28.53;100907.94;4420236;32;20067;-68
2022/07/26 02:51:25;;;;;;;;;;;;;;;30.79;28.28;100914.38;4419900;32;20008;-68
2022/07/26 02:53:50;;;;;;;;;;;;;;;30.69;28.52;100917.03;4422722;32;19988;-68
2022/07/26 02:56:16;;;;;;;;;;;;;;;30.67;28.50;100918.94;4422496;32;20275;-68
2022/07/26 02:58:41;;;;;;;;;;;;;;;30.79;28.28;100926.00;4418459;32;20198;-68
2022/07/26 03:01:07;;;;;;;;;;;;;;;30.89;28.27;100927.00;4421397;32;20027;-68
2022/07/26 03:03:32;;;;;;;;;;;;;;;30.80;28.30;100924.66;4422865;32;20394;-68
2022/07/26 03:05:58;;;;;;;;;;;;;;;30.37;28.63;100910.12;4419379;32;20032;-67
2022/07/26 03:08:23;;;;;;;;;;;;;;;30.60;28.36;100923.41;4421215;32;20038;-68
2022/07/26 03:10:49;;;;;;;;;;;;;;;30.64;28.29;100925.91;4421847;32;19993;-67
2022/07/26 03:13:14;;;;;;;;;;;;;;;30.72;28.41;100923.81;4423475;32;19976;-67
2022/07/26 03:15:40;;;;;;;;;;;;;;;30.63;28.54;100928.06;4419152;32;19989;-67
2022/07/26 03:18:05;;;;;;;;;;;;;;;30.76;28.40;100930.06;4420778;32;19953;-67
2022/07/26 03:20:31;;;;;;;;;;;;;;;30.78;28.20;100933.97;4420461;32;19993;-67
2022/07/26 03:22:56;;;;;;;;;;;;;;;30.84;27.99;100927.97;4421558;32;20327;-67
2022/07/26 03:25:22;;;;;;;;;;;;;;;30.21;28.71;100929.56;4419088;32;20035;-67
2022/07/26 03:27:47;;;;;;;;;;;;;;;30.69;28.20;100936.59;4420707;32;20288;-67
2022/07/26 03:30:13;;;;;;;;;;;;;;;30.46;28.59;100938.59;4420749;32;19953;-67
2022/07/26 03:32:39;;;;;;;;;;;;;;;30.56;28.52;100942.56;4422597;32;19957;-67
2022/07/26 03:35:05;;;;;;;;;;;;;;;30.43;28.63;100946.34;4420940;32;20329;-67
2022/07/26 03:37:31;;;;;;;;;;;;;;;30.62;28.10;100943.16;4422033;32;20045;-67
2022/07/26 03:39:56;;;;;;;;;;;;;;;30.36;28.79;100952.09;4418136;32;20336;-67
2022/07/26 03:42:22;;;;;;;;;;;;;;;30.69;28.32;100957.72;4419026;32;20323;-67
2022/07/26 03:44:48;;;;;;;;;;;;;;;30.84;28.24;100965.75;4421481;32;19967;-67
2022/07/26 03:47:13;;;;;;;;;;;;;;;30.71;28.52;100974.59;4421559;32;20008;-68
2022/07/26 03:49:39;;;;;;;;;;;;;;;30.54;28.78;100966.34;4420125;32;20463;-68
2022/07/26 03:52:05;;;;;;;;;;;;;;;29.94;29.37;100962.28;4421435;32;19983;-68
2022/07/26 03:54:30;;;;;;;;;;;;;;;30.35;28.65;100962.19;4418634;32;19965;-68
2022/07/26 03:56:56;;;;;;;;;;;;;;;30.34;28.62;100975.16;4418714;32;19985;-68
2022/07/26 03:59:23;;;;;;;;;;;;;;;30.24;28.76;100977.00;4418177;32;20417;-68
2022/07/26 04:01:48;;;;;;;;;;;;;;;30.12;29.23;100973.63;4407151;32;19994;-68
2022/07/26 04:04:14;;;;;;;;;;;;;;;30.02;29.33;100977.59;4423580;32;19996;-68
2022/07/26 04:06:40;;;;;;;;;;;;;;;30.12;29.12;100972.81;4420325;32;20239;-68
2022/07/26 04:09:06;;;;;;;;;;;;;;;30.22;29.04;100979.72;4418854;32;19977;-67
2022/07/26 04:11:32;;;;;;;;;;;;;;;30.23;29.00;100970.44;4421199;32;19953;-68
2022/07/26 04:13:58;;;;;;;;;;;;;;;30.21;28.95;100975.25;4422200;32;19995;-67
2022/07/26 04:16:24;;;;;;;;;;;;;;;30.38;28.48;100978.47;4423060;32;20305;-68
2022/07/26 04:18:50;;;;;;;;;;;;;;;30.48;28.44;100979.47;4419154;32;19997;-68
2022/07/26 04:21:16;;;;;;;;;;;;;;;30.35;28.85;100992.00;4420503;32;19986;-68
2022/07/26 04:23:41;;;;;;;;;;;;;;;30.44;28.48;100982.75;4420806;32;21038;-67
2022/07/26 04:26:07;;;;;;;;;;;;;;;30.61;28.18;100988.06;4420174;32;19997;-68
2022/07/26 04:28:32;;;;;;;;;;;;;;;30.60;28.26;100989.44;4421851;32;20046;-68
2022/07/26 04:30:59;;;;;;;;;;;;;;;30.62;28.32;100990.41;4422809;32;19985;-68
2022/07/26 04:33:24;;;;;;;;;;;;;;;30.46;28.23;100985.87;4423969;32;19953;-67
2022/07/26 04:35:50;;;;;;;;;;;;;;;30.32;28.34;100989.47;4423229;32;19994;-68
2022/07/26 04:38:16;;;;;;;;;;;;;;;30.71;27.92;100992.00;4423695;32;20032;-68
2022/07/26 04:40:41;;;;;;;;;;;;;;;30.29;28.24;100990.59;4424617;32;20004;-68
2022/07/26 04:43:07;;;;;;;;;;;;;;;30.63;27.96;100989.06;4423297;32;19997;-68
2022/07/26 04:45:33;;;;;;;;;;;;;;;30.24;28.41;101000.25;4424154;32;20178;-68
2022/07/26 04:47:58;;;;;;;;;;;;;;;30.10;28.79;101007.47;4422235;32;19950;-68
2022/07/26 04:50:24;;;;;;;;;;;;;;;30.06;28.96;101001.25;4424719;32;19945;-67
2022/07/26 04:52:50;;;;;;;;;;;;;;;29.77;29.74;101000.44;4424525;32;20256;-67
2022/07/26 04:55:16;;;;;;;;;;;;;;;29.74;31.05;100997.88;4424060;32;19953;-68
2022/07/26 04:57:42;;;;;;;;;;;;;;;29.32;30.55;100999.94;4423939;32;19993;-68
2022/07/26 05:00:10;;;;;;;;;;;;;;;29.53;30.42;101012.34;4422391;32;20346;-67
2022/07/26 05:02:36;;;;;;;;;;;;;;;29.55;30.85;101008.88;4422862;32;19950;-67
2022/07/26 05:05:01;;;;;;;;;;;;;;;29.19;30.65;101019.50;4422887;32;20325;-67
2022/07/26 05:07:27;;;;;;;;;;;;;;;29.31;30.98;101021.59;4421996;32;20275;-67
2022/07/26 05:09:52;;;;;;;;;;;;;;;29.29;30.97;101020.59;4422836;32;20430;-68
2022/07/26 05:12:18;;;;;;;;;;;;;;;29.48;31.46;101016.16;4425626;32;20442;-68
2022/07/26 05:14:43;;;;;;;;;;;;;;;29.60;31.50;101023.25;4422953;32;19988;-68
2022/07/26 05:17:09;;;;;;;;;;;;;;;29.74;31.44;101021.09;4421612;32;20368;-67
2022/07/26 05:19:35;;;;;;;;;;;;;;;29.93;31.05;101028.22;4421562;32;20005;-68
2022/07/26 05:22:00;;;;;;;;;;;;;;;29.98;31.04;101023.63;4424139;32;19988;-68
2022/07/26 05:24:26;;;;;;;;;;;;;;;29.80;30.93;101028.31;4423708;32;19990;-67
2022/07/26 05:26:51;;;;;;;;;;;;;;;30.25;30.37;101022.12;4420213;32;20004;-68
2022/07/26 05:29:16;;;;;;;;;;;;;;;30.28;30.41;101029.72;4422226;32;19953;-68
2022/07/26 05:31:42;;;;;;;;;;;;;;;30.47;29.88;101036.03;4425526;32;20004;-67
2022/07/26 05:34:07;;;;;;;;;;;;;;;30.42;30.02;101034.03;4421871;32;20386;-67
2022/07/26 05:36:33;;;;;;;;;;;;;;;30.60;29.32;101035.91;4420983;32;19980;-68
2022/07/26 05:38:59;;;;;;;;;;;;;;;30.52;29.29;101030.06;4423214;32;20393;-68
2022/07/26 05:41:24;;;;;;;;;;;;;;;30.75;28.58;101036.81;4422142;32;19964;-68
2022/07/26 05:43:50;;;;;;;;;;;;;;;30.71;28.46;101041.41;4424246;32;19992;-68
2022/07/26 05:46:15;;;;;;;;;;;;;;;30.43;28.69;101035.62;4422851;32;19989;-67
2022/07/26 05:48:41;;;;;;;;;;;;;;;30.56;28.09;101041.31;4421223;32;20073;-68
2022/07/26 05:51:08;;;;;;;;;;;;;;;30.93;27.73;101042.91;4421450;32;19997;-68
2022/07/26 05:53:33;;;;;;;;;;;;;;;30.80;27.94;101040.91;4424156;32;19960;-68
2022/07/26 05:55:59;;;;;;;;;;;;;;;30.72;27.35;101055.38;4424548;32;19957;-68
2022/07/26 05:58:25;;;;;;;;;;;;;;;30.90;27.09;101052.75;4424072;32;20015;-68
2022/07/26 06:00:51;;;;;;;;;;;;;;;30.73;26.90;101050.31;4421100;32;20355;-67
2022/07/26 06:03:24;;;;;;;;;;;;;;;30.67;27.23;101053.38;4423703;32;19958;-68
2022/07/26 06:05:51;;;;;;;;;;;;;;;31.10;26.01;101049.00;4422548;32;19997;-67
2022/07/26 06:08:17;;;;;;;;;;;;;;;31.28;25.33;101045.00;4420195;32;19993;-68
2022/07/26 06:10:43;;;;;;;;;;;;;;;31.24;25.91;101044.56;4423240;32;20426;-69
2022/07/26 06:13:08;;;;;;;;;;;;;;;31.55;25.08;101046.25;4423008;32;20047;-68
2022/07/26 06:15:33;;;;;;;;;;;;;;;31.11;25.62;101051.31;4410543;32;19988;-68
2022/07/26 06:17:59;;;;;;;;;;;;;;;31.53;25.21;101046.81;4423285;32;19994;-68
2022/07/26 06:20:24;;;;;;;;;;;;;;;31.85;24.45;101047.09;4420022;32;19984;-68
2022/07/26 06:22:51;;;;;;;;;;;;;;;32.04;24.63;101049.63;4424299;32;19962;-68
2022/07/26 06:25:17;;;;;;;;;;;;;;;32.00;24.45;101055.81;4422812;32;19989;-68
2022/07/26 06:27:42;;;;;;;;;;;;;;;32.19;24.66;101055.44;4418625;32;19992;-68
2022/07/26 06:30:09;;;;;;;;;;;;;;;32.16;24.38;101063.22;4420114;32;20456;-68
2022/07/26 06:32:34;;;;;;;;;;;;;;;32.39;24.17;101058.19;4425310;32;19961;-69
2022/07/26 06:35:00;;;;;;;;;;;;;;;32.63;23.72;101066.31;4423387;32;19957;-68
2022/07/26 06:37:26;;;;;;;;;;;;;;;32.78;23.32;101064.69;4423381;32;19996;-69
2022/07/26 06:39:51;;;;;;;;;;;;;;;33.06;23.44;101065.22;4420905;32;19945;-68
2022/07/26 06:42:17;;;;;;;;;;;;;;;33.29;22.83;101077.59;4421502;32;19980;-68
2022/07/26 06:44:42;;;;;;;;;;;;;;;33.57;23.00;101079.41;4420875;32;20389;-68
2022/07/26 06:47:08;;;;;;;;;;;;;;;33.24;22.79;101080.72;4423508;32;19981;-68
2022/07/26 06:49:33;;;;;;;;;;;;;;;33.31;22.94;101080.69;4422359;32;20401;-68
2022/07/26 06:51:59;;;;;;;;;;;;;;;33.26;22.92;101080.91;4419656;32;21074;-68
2022/07/26 06:54:25;;;;;;;;;;;;;;;33.30;22.07;101084.97;4420922;32;20258;-68
2022/07/26 06:56:50;;;;;;;;;;;;;;;33.13;22.51;101081.16;4420464;32;19962;-68
2022/07/26 06:59:16;;;;;;;;;;;;;;;33.18;22.24;101078.03;4420186;32;20081;-68
2022/07/26 07:01:41;;;;;;;;;;;;;;;33.35;22.25;101086.91;4420439;32;20286;-68
2022/07/26 07:04:07;;;;;;;;;;;;;;;33.26;22.49;101086.75;4424064;32;19990;-68
2022/07/26 07:06:32;;;;;;;;;;;;;;;33.15;22.75;101090.87;4422020;32;20008;-68
2022/07/26 07:08:58;;;;;;;;;;;;;;;33.32;22.58;101098.97;4422844;32;20004;-68
2022/07/26 07:11:23;;;;;;;;;;;;;;;33.42;22.53;101097.00;4419686;32;20288;-69
2022/07/26 07:13:49;;;;;;;;;;;;;;;33.44;22.36;101103.78;4422511;32;20362;-69
2022/07/26 07:16:14;;;;;;;;;;;;;;;33.12;22.82;101102.94;4422252;32;19994;-69
2022/07/26 07:18:40;;;;;;;;;;;;;;;33.06;22.46;101106.06;4420406;32;20194;-70
2022/07/26 07:21:06;;;;;;;;;;;;;;;32.85;23.17;101113.50;4423143;32;19949;-69
2022/07/26 07:23:32;;;;;;;;;;;;;;;32.84;24.68;101111.91;4420534;32;19982;-69
2022/07/26 07:25:58;;;;;;;;;;;;;;;32.78;24.57;101115.03;4419380;32;20418;-69
2022/07/26 07:28:23;;;;;;;;;;;;;;;32.51;25.67;101114.69;4418615;32;19953;-69
2022/07/26 07:30:49;;;;;;;;;;;;;;;32.56;25.96;101119.56;4415209;32;20001;-69
2022/07/26 07:33:14;;;;;;;;;;;;;;;32.59;26.68;101117.59;4418797;32;19953;-69
2022/07/26 07:35:40;;;;;;;;;;;;;;;32.20;26.84;101124.00;4418066;32;20004;-69
2022/07/26 07:38:06;;;;;;;;;;;;;;;32.42;27.00;101135.69;4421757;32;19953;-69
2022/07/26 07:40:31;;;;;;;;;;;;;;;32.18;27.42;101133.31;4421144;32;20348;-69
2022/07/26 07:42:58;;;;;;;;;;;;;;;31.93;28.40;101123.56;4422798;32;20278;-69
2022/07/26 07:45:23;;;;;;;;;;;;;;;31.74;27.97;101128.16;4421180;32;19972;-68
2022/07/26 07:47:49;;;;;;;;;;;;;;;31.34;27.87;101127.03;4415496;32;19998;-68
2022/07/26 07:50:14;;;;;;;;;;;;;;;30.66;28.94;101136.09;4408564;32;19961;-68
2022/07/26 07:52:40;;;;;;;;;;;;;;;30.64;29.76;101138.78;4408296;32;20030;-67
2022/07/26 07:55:06;;;;;;;;;;;;;;;30.47;31.14;101134.78;4411829;32;20288;-67
2022/07/26 07:57:34;;;;;;;;;;;;;;;30.46;30.84;101136.13;4409455;32;19961;-67
2022/07/26 08:00:00;;;;;;;;;;;;;;;30.17;30.98;101134.50;4410109;32;20004;-67
2022/07/26 08:02:25;;;;;;;;;;;;;;;30.25;32.12;101130.34;4413732;32;19958;-67
2022/07/26 08:04:52;;;;;;;;;;;;;;;30.47;31.74;101140.59;4410714;32;20429;-67
2022/07/26 08:07:18;;;;;;;;;;;;;;;30.23;31.92;101138.06;4415764;32;19997;-67
2022/07/26 08:09:43;;;;;;;;;;;;;;;30.31;32.15;101144.72;4413270;32;20083;-67
2022/07/26 08:12:10;;;;;;;;;;;;;;;30.36;32.32;101132.94;4417545;32;20422;-67
2022/07/26 08:14:35;;;;;;;;;;;;;;;30.24;32.05;101143.31;4417746;32;20310;-67
2022/07/26 08:17:01;;;;;;;;;;;;;;;30.57;32.22;101145.34;4417393;32;20057;-67
2022/07/26 08:19:26;;;;;;;;;;;;;;;30.54;31.02;101136.97;4413504;32;20335;-68
2022/07/26 08:21:51;;;;;;;;;;;;;;;30.75;32.15;101134.84;4411249;32;19997;-67
2022/07/26 08:24:17;;;;;;;;;;;;;;;30.75;31.04;101138.53;4410976;32;20025;-67
2022/07/26 08:26:42;;;;;;;;;;;;;;;31.02;30.96;101139.09;4413470;32;20010;-67
2022/07/26 08:29:08;;;;;;;;;;;;;;;31.05;31.35;101146.66;4410500;32;20005;-68
2022/07/26 08:31:33;;;;;;;;;;;;;;;31.51;31.10;101138.94;4411765;32;19993;-67
2022/07/26 08:33:59;;;;;;;;;;;;;;;31.67;31.06;101150.06;4409554;32;20387;-68
2022/07/26 08:36:24;;;;;;;;;;;;;;;31.68;29.89;101147.91;4412225;32;20365;-68
2022/07/26 08:38:51;;;;;;;;;;;;;;;31.88;30.09;101150.75;4416738;32;19958;-69
2022/07/26 08:41:17;;;;;;;;;;;;;;;32.07;29.33;101148.25;4415442;32;20005;-68
2022/07/26 08:43:43;;;;;;;;;;;;;;;32.53;28.96;101155.69;4418154;32;20015;-68
2022/07/26 08:46:09;;;;;;;;;;;;;;;32.67;28.16;101147.50;4415473;32;19966;-68
2022/07/26 08:48:35;;;;;;;;;;;;;;;33.16;28.24;101144.16;4414305;32;20012;-68
2022/07/26 08:51:06;;;;;;;;;;;;;;;33.55;28.26;101155.87;4418299;32;21338;-68
2022/07/26 08:53:32;;;;;;;;;;;;;;;33.61;27.79;101152.75;4420297;32;20382;-68
2022/07/26 08:55:58;;;;;;;;;;;;;;;33.91;27.81;101153.41;4418536;32;20225;-69
2022/07/26 08:58:23;;;;;;;;;;;;;;;33.91;26.82;101155.53;4419513;32;20293;-69
2022/07/26 09:01:01;;;;;;;;;;;;;;;33.74;26.83;101159.09;4422023;32;19995;-69
2022/07/26 09:03:28;;;;;;;;;;;;;;;32.28;27.04;101157.56;4422231;32;19953;-69
2022/07/26 09:05:53;;;;;;;;;;;;;;;32.77;27.11;101168.09;4422769;32;20024;-69
2022/07/26 09:08:24;;;;;;;;;;;;;;;31.95;28.42;101167.44;4417531;32;20017;-68
2022/07/26 09:10:50;;;;;;;;;;;;;;;32.21;27.28;101167.09;4421351;32;19965;-69
2022/07/26 09:13:16;;;;;;;;;;;;;;;32.53;27.08;101164.44;4421839;32;19985;-69
2022/07/26 09:15:41;;;;;;;;;;;;;;;32.77;27.11;101171.03;4421540;32;20127;-69
2022/07/26 09:18:23;;;;;;;;;;;;;;;32.21;28.71;101167.09;4415301;32;20334;-69
2022/07/26 09:20:48;;;;;;;;;;;;;;;32.70;28.53;101160.91;4416715;32;20037;-69
2022/07/26 09:23:15;;;;;;;;;;;;;;;32.19;28.32;101158.19;4417264;32;20011;-69
2022/07/26 09:25:42;;;;;;;;;;;;;;;32.17;28.75;101165.91;4414316;32;19975;-69
2022/07/26 09:28:28;;;;;;;;;;;;;;;32.77;28.16;101179.78;4416303;32;19963;-69
2022/07/26 09:30:55;;;;;;;;;;;;;;;32.13;28.16;101171.38;4414707;32;20425;-69
2022/07/26 09:33:20;;;;;;;;;;;;;;;32.47;28.39;101183.47;4419418;32;19983;-69
2022/07/26 09:35:59;;;;;;;;;;;;;;;32.31;28.02;101173.13;4415775;32;19973;-69
2022/07/26 09:38:24;;;;;;;;;;;;;;;32.36;28.51;101172.97;4417844;32;19969;-68
2022/07/26 09:40:54;;;;;;;;;;;;;;;32.32;28.67;101172.56;4417482;32;19991;-69
2022/07/26 09:43:19;;;;;;;;;;;;;;;32.97;27.59;101178.81;4421545;32;20415;-69
2022/07/26 09:45:45;;;;;;;;;;;;;;;33.39;27.24;101179.87;4420437;32;19953;-69
2022/07/26 09:48:11;;;;;;;;;;;;;;;34.45;26.81;101189.69;4418234;32;19968;-69
2022/07/26 09:50:36;;;;;;;;;;;;;;;34.04;27.62;101193.22;4405971;32;19961;-68
2022/07/26 09:53:06;;;;;;;;;;;;;;;33.40;28.49;101193.09;4416585;32;19961;-68
2022/07/26 09:55:32;;;;;;;;;;;;;;;32.59;29.00;101190.47;4418358;32;19967;-67
2022/07/26 09:58:02;;;;;;;;;;;;;;;31.82;28.67;101188.00;4420435;32;19960;-68
2022/07/26 10:00:28;;;;;;;;;;;;;;;30.85;30.73;101188.19;4416219;32;19965;-68
2022/07/26 10:02:54;;;;;;;;;;;;;;;31.17;30.90;101179.84;4419803;32;19969;-68
2022/07/26 10:05:20;;;;;;;;;;;;;;;31.37;31.40;101187.75;4420020;32;19961;-68
2022/07/26 10:07:48;;;;;;;;;;;;;;;31.24;31.72;101187.88;4412882;32;19966;-68
2022/07/26 10:10:17;;;;;;;;;;;;;;;31.47;31.33;101193.84;4417592;32;20024;-68
2022/07/26 10:12:45;;;;;;;;;;;;;;;31.52;30.88;101187.84;4420457;32;20003;-68
2022/07/26 10:15:30;;;;;;;;;;;;;;;32.15;31.83;101189.03;4419309;32;19965;-68
2022/07/26 10:17:56;;;;;;;;;;;;;;;33.07;29.06;101192.19;4421669;32;20012;-69
2022/07/26 10:20:41;;;;;;;;;;;;;;;34.61;26.53;101188.19;4419618;32;19992;-69
2022/07/26 10:23:27;;;;;;;;;;;;;;;35.10;25.62;101188.12;4421990;32;19961;-68
2022/07/26 10:25:53;;;;;;;;;;;;;;;36.14;25.55;101187.44;4420603;32;20295;-69
2022/07/26 10:28:28;;;;;;;;;;;;;;;36.06;23.94;101189.69;4406726;32;20065;-69
2022/07/26 10:31:14;;;;;;;;;;;;;;;36.34;22.78;101188.31;4420738;32;19981;-69
2022/07/26 10:33:43;;;;;;;;;;;;;;;36.56;23.36;101190.88;4422294;32;19994;-69
2022/07/26 10:36:26;;;;;;;;;;;;;;;36.48;24.06;101184.38;4421334;32;20012;-69
2022/07/26 10:41:37;;;;;;;;;;;;;;;37.90;22.62;101194.78;3957306;32;15746611;-68
2022/07/26 10:44:22;;;;;;;;;;;;;;;37.90;22.62;101194.78;4428736;32;20444;-68
2022/07/26 10:46:55;;;;;;;;;;;;;;;37.66;22.03;101190.81;4431889;32;19998;-68
2022/07/26 10:49:25;;;;;;;;;;;;;;;37.89;22.09;101196.94;4430365;32;20013;-68
2022/07/26 10:52:03;;;;;;;;;;;;;;;37.64;22.51;101186.94;4428145;32;19948;-68
2022/07/26 10:54:28;;;;;;;;;;;;;;;37.80;22.24;101188.16;4430301;32;19997;-70
2022/07/26 10:56:54;;;;;;;;;;;;;;;37.56;22.50;101183.38;4429127;32;19993;-68
2022/07/26 10:59:29;;;;;;;;;;;;;;;37.54;22.52;101177.34;4425291;32;20139;-69
2022/07/26 11:01:56;;;;;;;;;;;;;;;37.14;21.85;101186.72;4430708;32;20009;-69
2022/07/26 11:04:21;;;;;;;;;;;;;;;36.80;23.79;101181.09;4427269;32;19968;-68
2022/07/26 11:06:47;;;;;;;;;;;;;;;36.68;23.09;101185.97;4429611;32;20003;-69
2022/07/26 11:09:13;;;;;;;;;;;;;;;36.15;24.17;101195.63;4429398;32;19998;-69
2022/07/26 11:11:39;;;;;;;;;;;;;;;35.71;24.37;101194.81;4416058;32;20012;-68
2022/07/26 11:14:06;;;;;;;;;;;;;;;35.80;23.54;101200.00;4429439;32;19996;-69
2022/07/26 11:16:37;;;;;;;;;;;;;;;35.43;23.65;101198.31;4427077;32;19981;-69
2022/07/26 11:19:19;;;;;;;;;;;;;;;34.04;23.19;101205.69;4429599;32;19999;-69
2022/07/26 11:21:45;;;;;;;;;;;;;;;33.96;23.80;101201.28;4402679;32;19993;-69
2022/07/26 11:24:11;;;;;;;;;;;;;;;33.34;24.15;101195.44;4429898;32;19945;-69
2022/07/26 11:26:41;;;;;;;;;;;;;;;34.10;23.37;101206.25;4427017;32;20017;-68
2022/07/26 11:29:07;;;;;;;;;;;;;;;34.71;23.51;101209.53;4429499;32;20384;-69
2022/07/26 11:31:44;;;;;;;;;;;;;;;34.84;22.64;101212.13;4432074;32;20057;-69
2022/07/26 11:34:18;;;;;;;;;;;;;;;34.51;22.73;101206.97;4426273;32;19997;-69
2022/07/26 11:36:44;;;;;;;;;;;;;;;35.32;22.88;101210.50;4427871;32;19960;-69
2022/07/26 11:39:12;;;;;;;;;;;;;;;35.05;22.34;101205.91;4427241;32;20143;-69
2022/07/26 11:41:38;;;;;;;;;;;;;;;35.89;21.73;101211.00;4431859;32;19957;-69
2022/07/26 11:44:05;;;;;;;;;;;;;;;35.96;21.57;101209.38;4432068;32;19996;-69
2022/07/26 11:46:32;;;;;;;;;;;;;;;36.35;21.06;101216.25;4427110;32;19972;-69
2022/07/26 11:48:58;;;;;;;;;;;;;;;36.72;20.04;101209.75;4428750;32;20348;-70
2022/07/26 11:51:24;;;;;;;;;;;;;;;37.35;19.73;101212.56;4424934;32;19945;-69
2022/07/26 11:53:58;;;;;;;;;;;;;;;38.21;18.74;101216.25;4418272;32;20032;-70
2022/07/26 11:56:24;;;;;;;;;;;;;;;38.26;18.93;101215.16;4418573;32;20438;-69
2022/07/26 11:58:50;;;;;;;;;;;;;;;38.76;18.07;101206.28;4418868;32;20693;-69
2022/07/26 12:01:17;;;;;;;;;;;;;;;38.60;18.61;101208.09;4416886;32;20489;-69
2022/07/26 12:03:44;;;;;;;;;;;;;;;39.46;18.27;101206.19;4418314;32;19992;-68
2022/07/26 12:06:12;;;;;;;;;;;;;;;39.19;17.38;101207.91;4419738;32;19980;-68
2022/07/26 12:11:15;;;;;;;;;;;;;;;39.86;18.08;101192.66;3950577;32;15753549;-69
2022/07/26 12:13:57;;;;;;;;;;;;;;;39.86;18.08;101192.66;4423500;32;19989;-70
2022/07/26 12:16:43;;;;;;;;;;;;;;;41.36;16.06;101209.06;4429757;32;20357;-69
2022/07/26 12:27:18;;;;;;;;;;;;;;;41.65;15.42;101205.63;3951391;32;15722591;-69
2022/07/26 12:29:48;;;;;;;;;;;;;;;41.65;15.42;101205.63;4428275;32;20041;-69
2022/07/26 12:32:16;;;;;;;;;;;;;;;40.50;15.66;101206.53;4430973;32;20019;-68
2022/07/26 12:34:54;;;;;;;;;;;;;;;39.87;15.10;101194.97;4425154;32;20075;-69
2022/07/26 12:37:19;;;;;;;;;;;;;;;38.48;16.52;101198.34;4424568;32;19958;-68
2022/07/26 12:40:02;;;;;;;;;;;;;;;38.67;16.95;101193.19;4427114;32;20046;-68
2022/07/26 12:42:30;;;;;;;;;;;;;;;39.02;15.90;101199.37;4428708;32;19989;-69
2022/07/26 12:44:56;;;;;;;;;;;;;;;39.62;15.85;101191.78;4416548;32;19997;-69
2022/07/26 12:47:21;;;;;;;;;;;;;;;39.88;15.91;101187.69;4425840;32;20532;-69